createdAt,value
2024-03-22T01:55:49.933Z,100173.25
2024-03-22T01:58:20.978Z,100172.77
2024-03-22T02:00:52.726Z,100172.86
2024-03-22T02:03:23.357Z,100174.38
2024-03-22T02:05:55.108Z,100173.80
2024-03-22T02:08:25.950Z,100170.44
2024-03-22T02:10:57.505Z,100174.52
2024-03-22T02:13:28.150Z,100176.67
2024-03-22T02:15:59.690Z,100173.49
2024-03-22T02:18:30.329Z,100172.27
2024-03-22T02:21:01.773Z,100175.58
2024-03-22T02:23:42.020Z,100178.71
2024-03-22T02:26:13.887Z,100176.50
2024-03-22T02:28:44.212Z,100170.19
2024-03-22T02:31:16.317Z,100168.16
2024-03-22T02:33:46.815Z,100164.27
2024-03-22T02:36:18.844Z,100159.02
2024-03-22T02:38:49.193Z,100154.94
2024-03-22T02:41:21.367Z,100149.89
2024-03-22T02:43:51.792Z,100145.21
2024-03-22T02:46:23.245Z,100142.55
2024-03-22T02:48:53.976Z,100143.82
2024-03-22T02:51:25.732Z,100142.99
2024-03-22T02:53:56.543Z,100139.91
2024-03-22T02:56:28.527Z,100140.09
2024-03-22T02:58:58.962Z,100141.13
2024-03-22T03:01:31.031Z,100136.14
2024-03-22T03:04:01.465Z,100134.27
2024-03-22T03:06:33.106Z,100136.34
2024-03-22T03:09:05.935Z,100133.20
2024-03-22T03:11:40.432Z,100133.98
2024-03-22T03:14:10.739Z,100131.70
2024-03-22T03:16:42.590Z,100127.21
2024-03-22T03:19:12.809Z,100130.33
2024-03-22T03:21:44.778Z,100126.52
2024-03-22T03:24:15.105Z,100133.09
2024-03-22T03:26:47.267Z,100126.55
2024-03-22T03:29:17.486Z,100125.20
2024-03-22T03:31:50.306Z,100120.23
2024-03-22T03:34:21.825Z,100119.91
2024-03-22T03:36:53.475Z,100117.02
2024-03-22T03:39:24.827Z,100115.45
2024-03-22T03:41:56.581Z,100114.77
2024-03-22T03:44:27.313Z,100115.29
2024-03-22T03:46:59.073Z,100114.48
2024-03-22T03:49:29.711Z,100109.38
2024-03-22T03:52:01.252Z,100106.29
2024-03-22T03:54:31.887Z,100100.80
2024-03-22T03:57:03.750Z,100100.66
2024-03-22T03:59:34.273Z,100101.02
2024-03-22T04:02:06.319Z,100108.39
2024-03-22T04:04:36.777Z,100109.77
2024-03-22T04:07:08.523Z,100110.16
2024-03-22T04:09:38.851Z,100114.00
2024-03-22T04:12:11.099Z,100114.39
2024-03-22T04:14:41.666Z,100113.15
2024-03-22T04:17:13.715Z,100112.42
2024-03-22T04:19:44.138Z,100109.98
2024-03-22T04:22:16.011Z,100107.02
2024-03-22T04:24:46.828Z,100109.44
2024-03-22T04:27:18.403Z,100113.78
2024-03-22T04:29:49.331Z,100124.52
2024-03-22T04:32:21.407Z,100125.33
2024-03-22T04:34:51.815Z,100127.77
2024-03-22T04:37:23.714Z,100131.04
2024-03-22T04:39:54.207Z,100128.29
2024-03-22T04:42:25.971Z,100132.10
2024-03-22T04:44:56.288Z,100130.21
2024-03-22T04:47:28.283Z,100132.27
2024-03-22T04:49:58.888Z,100135.90
2024-03-22T04:52:30.439Z,100137.10
2024-03-22T04:55:03.070Z,100132.27
2024-03-22T04:57:34.564Z,100127.28
2024-03-22T05:00:08.477Z,100126.41
2024-03-22T05:02:41.492Z,100132.80
2024-03-22T05:05:13.700Z,100135.95
2024-03-22T05:07:45.280Z,100134.94
2024-03-22T05:10:17.982Z,100135.80
2024-03-22T05:12:50.230Z,100135.82
2024-03-22T05:15:20.974Z,100136.85
2024-03-22T05:17:53.033Z,100136.83
2024-03-22T05:20:23.571Z,100138.74
2024-03-22T05:22:55.899Z,100138.20
2024-03-22T05:25:29.505Z,100136.64
2024-03-22T05:28:02.276Z,100136.80
2024-03-22T05:30:33.051Z,100134.38
2024-03-22T05:33:05.109Z,100134.01
2024-03-22T05:35:35.748Z,100135.55
2024-03-22T05:38:07.499Z,100135.90
2024-03-22T05:40:39.987Z,100132.40
2024-03-22T05:43:11.941Z,100135.77
2024-03-22T05:45:42.162Z,100137.79
2024-03-22T05:48:14.221Z,100136.04
2024-03-22T05:50:44.457Z,100137.38
2024-03-22T05:53:16.217Z,100137.52
2024-03-22T05:55:46.536Z,100140.41
2024-03-22T05:58:19.213Z,100135.52
2024-03-22T06:00:49.640Z,100137.67
2024-03-22T06:03:21.700Z,100133.09
2024-03-22T06:05:56.324Z,100128.59
2024-03-22T06:08:28.407Z,100130.33
2024-03-22T06:10:58.709Z,100125.29
2024-03-22T06:13:33.080Z,100123.98
2024-03-22T06:16:04.858Z,100124.45
2024-03-22T06:18:36.759Z,100120.42
2024-03-22T06:21:07.380Z,100127.04
2024-03-22T06:23:39.443Z,100127.29
2024-03-22T06:26:09.779Z,100131.16
2024-03-22T06:28:41.643Z,100128.91
2024-03-22T06:31:12.058Z,100133.31
2024-03-22T06:33:43.896Z,100134.06
2024-03-22T06:36:14.346Z,100131.83
2024-03-22T06:38:45.996Z,100132.98
2024-03-22T06:41:16.540Z,100131.95
2024-03-22T06:43:48.286Z,100130.79
2024-03-22T06:46:18.715Z,100134.27
2024-03-22T06:48:50.591Z,100134.90
2024-03-22T06:51:21.098Z,100128.47
2024-03-22T06:53:53.558Z,100129.84
2024-03-22T06:56:24.515Z,100127.02
2024-03-22T06:58:56.685Z,100128.81
2024-03-22T07:01:27.206Z,100131.43
2024-03-22T07:03:58.872Z,100129.30
2024-03-22T07:06:29.597Z,100132.28
2024-03-22T07:09:01.258Z,100127.43
2024-03-22T07:11:33.305Z,100130.00
2024-03-22T07:14:04.877Z,100131.12
2024-03-22T07:16:35.497Z,100126.06
2024-03-22T07:19:07.268Z,100123.08
2024-03-22T07:21:37.683Z,100121.13
2024-03-22T07:24:09.251Z,100123.62
2024-03-22T07:26:40.070Z,100121.92
2024-03-22T07:29:11.534Z,100117.44
2024-03-22T07:31:42.847Z,100116.84
2024-03-22T07:34:14.554Z,100115.52
2024-03-22T07:36:45.165Z,100117.34
2024-03-22T07:39:16.914Z,100116.55
2024-03-22T07:41:47.676Z,100110.54
2024-03-22T07:44:20.953Z,100114.95
2024-03-22T07:46:51.499Z,100113.45
2024-03-22T07:49:23.143Z,100109.34
2024-03-22T07:51:54.374Z,100106.33
2024-03-22T07:54:25.947Z,100107.36
2024-03-22T07:56:56.896Z,100109.34
2024-03-22T07:59:28.717Z,100109.17
2024-03-22T08:01:59.263Z,100104.00
2024-03-22T08:04:31.400Z,100102.70
2024-03-22T08:07:02.685Z,100096.92
2024-03-22T08:09:35.052Z,100096.56
2024-03-22T08:12:05.978Z,100089.92
2024-03-22T08:14:38.045Z,100096.03
2024-03-22T08:17:10.423Z,100096.83
2024-03-22T08:19:42.621Z,100098.77
2024-03-22T08:22:13.113Z,100093.86
2024-03-22T08:24:44.975Z,100098.21
2024-03-22T08:27:15.502Z,100101.03
2024-03-22T08:29:48.819Z,100099.50
2024-03-22T08:32:19.997Z,100101.64
2024-03-22T08:34:51.763Z,100101.71
2024-03-22T08:37:22.374Z,100101.27
2024-03-22T08:39:54.080Z,100096.78
2024-03-22T08:42:24.621Z,100088.56
2024-03-22T08:44:56.496Z,100084.56
2024-03-22T08:47:27.227Z,100079.46
2024-03-22T08:49:59.428Z,100072.77
2024-03-22T08:52:31.436Z,100071.27
2024-03-22T08:55:05.792Z,100070.61
2024-03-22T08:57:39.442Z,100071.73
2024-03-22T09:00:14.029Z,100065.11
2024-03-22T09:02:44.408Z,100060.92
2024-03-22T09:05:16.678Z,100064.59
2024-03-22T09:07:47.505Z,100064.15
2024-03-22T09:10:20.893Z,100060.02
2024-03-22T09:12:51.444Z,100057.34
2024-03-22T09:15:23.411Z,100056.61
2024-03-22T09:17:54.095Z,100053.17
2024-03-22T09:20:25.800Z,100049.55
2024-03-22T09:22:56.533Z,100046.40
2024-03-22T09:25:28.956Z,100041.60
2024-03-22T09:27:59.328Z,100040.23
2024-03-22T09:30:38.630Z,100033.50
2024-03-22T09:33:13.794Z,100026.60
2024-03-22T09:35:45.931Z,100025.97
2024-03-22T09:38:17.622Z,100024.23
2024-03-22T09:40:48.051Z,100018.83
2024-03-22T09:43:20.127Z,100016.29
2024-03-22T09:45:53.406Z,100014.92
2024-03-22T09:48:25.470Z,100016.26
2024-03-22T09:50:56.511Z,100016.30
2024-03-22T09:53:28.417Z,100011.89
2024-03-22T09:55:59.413Z,100005.36
2024-03-22T09:58:31.070Z,100005.27
2024-03-22T10:01:01.796Z,100009.70
2024-03-22T10:03:33.219Z,100009.16
2024-03-22T10:06:04.043Z,100006.27
2024-03-22T10:08:35.742Z,100005.98
2024-03-22T10:11:06.275Z,100007.14
2024-03-22T10:13:38.132Z,100005.86
2024-03-22T10:16:08.822Z,100007.41
2024-03-22T10:18:40.526Z,100002.19
2024-03-22T10:21:11.155Z,99997.71
2024-03-22T10:23:42.709Z,99998.09
2024-03-22T10:26:13.164Z,99992.17
2024-03-22T10:28:48.678Z,99986.95
2024-03-22T10:31:22.131Z,99990.52
2024-03-22T10:33:52.739Z,99987.12
2024-03-22T10:36:24.904Z,99982.45
2024-03-22T10:38:56.234Z,99979.98
2024-03-22T10:41:28.174Z,99979.60
2024-03-22T10:43:59.601Z,99979.54
2024-03-22T10:46:32.113Z,99979.04
2024-03-22T10:49:05.430Z,99974.86
2024-03-22T10:51:37.471Z,99977.89
2024-03-22T10:54:07.798Z,99975.23
2024-03-22T10:56:39.747Z,99972.84
2024-03-22T10:59:10.286Z,99973.80
2024-03-22T11:01:46.863Z,99968.11
2024-03-22T11:04:19.023Z,99963.96
2024-03-22T11:06:52.728Z,99960.73
2024-03-22T11:09:26.663Z,99953.92
2024-03-22T11:12:01.668Z,99948.88
2024-03-22T11:14:33.467Z,99939.92
2024-03-22T11:17:04.464Z,99938.33
2024-03-22T11:19:36.223Z,99937.44
2024-03-22T11:22:09.575Z,99932.04
2024-03-22T11:24:41.272Z,99926.75
2024-03-22T11:27:15.320Z,99923.20
2024-03-22T11:29:48.041Z,99925.02
2024-03-22T11:32:18.595Z,99917.81
2024-03-22T11:34:50.457Z,99908.52
2024-03-22T11:37:20.669Z,99907.27
2024-03-22T11:39:53.049Z,99900.10
2024-03-22T11:42:23.476Z,99897.90
2024-03-22T11:44:55.446Z,99896.62
2024-03-22T11:47:25.968Z,99889.30
2024-03-22T11:49:57.822Z,99885.58
2024-03-22T11:52:28.356Z,99885.66
2024-03-22T11:55:00.015Z,99885.84
2024-03-22T11:57:30.742Z,99879.63
2024-03-22T12:00:15.172Z,99870.60
2024-03-22T12:02:54.127Z,99867.08
2024-03-22T12:05:24.550Z,99859.33
2024-03-22T12:07:56.510Z,99854.29
2024-03-22T12:10:26.673Z,99848.92
2024-03-22T12:12:58.692Z,99847.61
2024-03-22T12:15:29.636Z,99846.75
2024-03-22T12:18:01.315Z,99844.77
2024-03-22T12:20:31.925Z,99837.55
2024-03-22T12:23:04.210Z,99837.77
2024-03-22T12:25:34.814Z,99835.88
2024-03-22T12:28:07.188Z,99830.59
2024-03-22T12:30:37.633Z,99825.48
2024-03-22T12:33:11.737Z,99819.64
2024-03-22T12:35:42.562Z,99814.02
2024-03-22T12:38:15.044Z,99809.45
2024-03-22T12:40:45.466Z,99806.06
2024-03-22T12:43:18.457Z,99803.97
2024-03-22T12:45:48.887Z,99798.85
2024-03-22T12:48:20.645Z,99795.35
2024-03-22T12:50:51.268Z,99793.04
2024-03-22T12:53:23.028Z,99792.27
2024-03-22T12:55:53.455Z,99783.06
2024-03-22T12:58:25.213Z,99784.88
2024-03-22T13:00:55.733Z,99783.04
2024-03-22T13:03:28.511Z,99780.31
2024-03-22T13:05:58.841Z,99777.27
2024-03-22T13:08:30.604Z,99772.66
2024-03-22T13:11:01.137Z,99770.69
2024-03-22T13:13:32.897Z,99764.45
2024-03-22T13:16:04.091Z,99759.52
2024-03-22T13:18:35.998Z,99751.44
2024-03-22T13:21:06.941Z,99755.02
2024-03-22T13:23:39.210Z,99750.69
2024-03-22T13:26:09.633Z,99752.48
2024-03-22T13:28:43.358Z,99754.33
2024-03-22T13:31:14.093Z,99751.69
2024-03-22T13:33:45.644Z,99750.02
2024-03-22T13:36:16.361Z,99742.67
2024-03-22T13:38:47.703Z,99741.68
2024-03-22T13:41:18.456Z,99739.58
2024-03-22T13:43:49.892Z,99734.14
2024-03-22T13:46:20.413Z,99727.59
2024-03-22T13:48:51.872Z,99725.53
2024-03-22T13:51:22.892Z,99724.80
2024-03-22T13:53:54.360Z,99720.20
2024-03-22T13:56:27.674Z,99712.02
2024-03-22T13:58:59.740Z,99708.14
2024-03-22T14:01:31.116Z,99706.05
2024-03-22T14:04:04.394Z,99705.64
2024-03-22T14:06:35.139Z,99702.58
2024-03-22T14:09:09.222Z,99702.59
2024-03-22T14:11:40.464Z,99702.23
2024-03-22T14:14:15.276Z,99697.92
2024-03-22T14:16:48.192Z,99699.61
2024-03-22T14:19:20.273Z,99694.73
2024-03-22T14:21:52.211Z,99688.85
2024-03-22T14:24:22.620Z,99686.11
2024-03-22T14:26:54.373Z,99682.98
2024-03-22T14:29:25.114Z,99680.89
2024-03-22T14:31:57.100Z,99672.09
2024-03-22T14:34:27.711Z,99663.94
2024-03-22T14:36:59.461Z,99662.98
2024-03-22T14:39:30.406Z,99657.48
2024-03-22T14:42:02.073Z,99661.02
2024-03-22T14:44:32.810Z,99659.73
2024-03-22T14:47:05.073Z,99652.54
2024-03-22T14:49:36.412Z,99654.06
2024-03-22T14:52:08.474Z,99646.30
2024-03-22T14:54:39.004Z,99644.05
2024-03-22T14:57:11.167Z,99637.58
2024-03-22T14:59:41.590Z,99631.91
2024-03-22T15:02:13.730Z,99624.81
2024-03-22T15:04:44.824Z,99626.08
2024-03-22T15:07:17.277Z,99622.30
2024-03-22T15:09:47.801Z,99615.91
2024-03-22T15:12:19.465Z,99614.66
2024-03-22T15:14:54.468Z,99613.80
2024-03-22T15:17:26.214Z,99608.05
2024-03-22T15:19:57.193Z,99609.57
2024-03-22T15:22:29.426Z,99605.89
2024-03-22T15:25:00.711Z,99610.58
2024-03-22T15:27:32.674Z,99615.34
2024-03-22T15:30:03.098Z,99615.00
2024-03-22T15:32:35.269Z,99610.38
2024-03-22T15:35:06.211Z,99612.41
2024-03-22T15:37:38.762Z,99608.60
2024-03-22T15:40:12.285Z,99607.29
2024-03-22T15:42:44.341Z,99610.77
2024-03-22T15:45:14.870Z,99612.24
2024-03-22T15:47:46.728Z,99606.70
2024-03-22T15:50:17.325Z,99608.00
2024-03-22T15:52:49.232Z,99609.73
2024-03-22T15:55:19.763Z,99607.90
2024-03-22T15:57:53.972Z,99610.30
2024-03-22T16:00:24.588Z,99609.56
2024-03-22T16:02:57.379Z,99609.48
2024-03-22T16:05:27.706Z,99609.77
2024-03-22T16:07:59.668Z,99610.55
2024-03-22T16:10:30.000Z,99607.02
2024-03-22T16:13:02.153Z,99604.04
2024-03-22T16:15:32.496Z,99604.73
2024-03-22T16:18:05.077Z,99603.45
2024-03-22T16:20:35.380Z,99602.19
2024-03-22T16:23:09.998Z,99601.30
2024-03-22T16:25:43.690Z,99592.89
2024-03-22T16:28:14.339Z,99589.90
2024-03-22T16:30:45.814Z,99588.29
2024-03-22T16:33:16.318Z,99575.70
2024-03-22T16:35:48.194Z,99578.05
2024-03-22T16:38:18.403Z,99576.39
2024-03-22T16:40:50.370Z,99573.32
2024-03-22T16:43:21.195Z,99570.48
2024-03-22T16:45:52.853Z,99569.55
2024-03-22T16:48:23.277Z,99566.58
2024-03-22T16:50:55.648Z,99566.08
2024-03-22T16:53:26.593Z,99566.05
2024-03-22T16:55:58.465Z,99562.84
2024-03-22T16:58:29.092Z,99561.90
2024-03-22T17:01:09.550Z,99561.79
2024-03-22T17:03:41.107Z,99567.10
2024-03-22T17:06:18.277Z,99568.75
2024-03-22T17:08:53.523Z,99569.05
2024-03-22T17:11:25.095Z,99564.48
2024-03-22T17:13:58.169Z,99566.65
2024-03-22T17:16:28.689Z,99560.88
2024-03-22T17:19:00.465Z,99562.23
2024-03-22T17:21:30.980Z,99564.40
2024-03-22T17:24:02.735Z,99564.69
2024-03-22T17:26:33.266Z,99560.40
2024-03-22T17:29:05.570Z,99562.55
2024-03-22T17:31:39.686Z,99558.31
2024-03-22T17:34:12.018Z,99557.84
2024-03-22T17:36:42.645Z,99559.78
2024-03-22T17:39:15.494Z,99557.38
2024-03-22T17:41:45.971Z,99557.05
2024-03-22T17:44:17.834Z,99559.17
2024-03-22T17:46:48.243Z,99560.90
2024-03-22T17:49:20.117Z,99555.08
2024-03-22T17:51:50.557Z,99556.29
2024-03-22T17:54:22.497Z,99553.73
2024-03-22T17:56:52.818Z,99552.16
2024-03-22T17:59:24.791Z,99546.65
2024-03-22T18:01:56.340Z,99546.52
2024-03-22T18:04:28.193Z,99540.52
2024-03-22T18:07:02.010Z,99534.48
2024-03-22T18:09:34.279Z,99527.05
2024-03-22T18:12:05.867Z,99521.15
2024-03-22T18:14:37.585Z,99515.20
2024-03-22T18:17:08.420Z,99514.38
2024-03-22T18:19:40.382Z,99515.41
2024-03-22T18:22:10.824Z,99513.83
2024-03-22T18:24:42.870Z,99500.61
2024-03-22T18:27:13.317Z,99497.30
2024-03-22T18:29:45.158Z,99492.42
2024-03-22T18:32:15.591Z,99495.54
2024-03-22T18:34:47.225Z,99497.27
2024-03-22T18:37:20.037Z,99495.31
2024-03-22T18:39:51.977Z,99492.48
2024-03-22T18:42:22.476Z,99492.27
2024-03-22T18:44:54.473Z,99493.80
2024-03-22T18:47:25.819Z,99487.92
2024-03-22T18:49:57.596Z,99485.71
2024-03-22T18:52:28.111Z,99480.41
2024-03-22T18:55:02.547Z,99481.13
2024-03-22T18:57:36.502Z,99475.77
2024-03-22T19:00:07.799Z,99474.70
2024-03-22T19:02:41.357Z,99470.39
2024-03-22T19:05:11.615Z,99467.77
2024-03-22T19:07:43.389Z,99468.50
2024-03-22T19:10:14.914Z,99468.92
2024-03-22T19:12:46.981Z,99472.90
2024-03-22T19:15:17.327Z,99467.98
2024-03-22T19:17:49.275Z,99470.32
2024-03-22T19:20:19.597Z,99469.23
2024-03-22T19:22:51.561Z,99470.70
2024-03-22T19:25:23.621Z,99465.92
2024-03-22T19:27:55.492Z,99459.30
2024-03-22T19:30:26.139Z,99459.34
2024-03-22T19:32:57.870Z,99464.36
2024-03-22T19:35:29.118Z,99461.73
2024-03-22T19:38:01.292Z,99448.95
2024-03-22T19:40:31.816Z,99442.81
2024-03-22T19:43:04.904Z,99440.80
2024-03-22T19:45:35.742Z,99437.69
2024-03-22T19:48:07.930Z,99444.27
2024-03-22T19:50:38.634Z,99443.90
2024-03-22T19:53:10.202Z,99444.89
2024-03-22T19:55:40.826Z,99441.80
2024-03-22T19:58:12.580Z,99443.22
2024-03-22T20:00:43.107Z,99438.80
2024-03-22T20:03:15.416Z,99436.06
2024-03-22T20:05:47.251Z,99434.70
2024-03-22T20:08:20.445Z,99439.77
2024-03-22T20:10:50.865Z,99437.76
2024-03-22T20:13:22.523Z,99432.77
2024-03-22T20:15:53.174Z,99430.06
2024-03-22T20:18:26.444Z,99429.25
2024-03-22T20:20:57.851Z,99428.83
2024-03-22T20:23:29.740Z,99424.02
2024-03-22T20:26:00.284Z,99421.05
2024-03-22T20:28:31.827Z,99420.88
2024-03-22T20:31:02.690Z,99421.23
2024-03-22T20:33:34.417Z,99423.45
2024-03-22T20:36:05.539Z,99421.52
2024-03-22T20:38:37.237Z,99421.11
2024-03-22T20:41:07.444Z,99419.09
2024-03-22T20:43:38.991Z,99417.77
2024-03-22T20:46:09.532Z,99413.67
2024-03-22T20:48:40.976Z,99410.78
2024-03-22T20:51:13.783Z,99408.60
2024-03-22T20:53:45.427Z,99406.92
2024-03-22T20:56:16.153Z,99404.25
2024-03-22T20:58:47.710Z,99402.25
2024-03-22T21:01:19.900Z,99405.81
2024-03-22T21:03:51.423Z,99403.30
2024-03-22T21:06:22.158Z,99406.60
2024-03-22T21:08:53.813Z,99398.50
2024-03-22T21:11:24.573Z,99397.30
2024-03-22T21:13:56.303Z,99394.56
2024-03-22T21:16:26.834Z,99389.42
2024-03-22T21:18:58.690Z,99385.00
2024-03-22T21:21:29.321Z,99379.91
2024-03-22T21:24:01.077Z,99377.83
2024-03-22T21:26:31.604Z,99374.98
2024-03-22T21:29:03.362Z,99376.63
2024-03-22T21:31:34.295Z,99377.95
2024-03-22T21:34:06.072Z,99379.60
2024-03-22T21:36:36.789Z,99380.14
2024-03-22T21:39:12.254Z,99382.08
2024-03-22T21:41:45.055Z,99382.10
2024-03-22T21:44:15.451Z,99381.45
2024-03-22T21:46:47.616Z,99376.56
2024-03-22T21:49:18.036Z,99370.65
2024-03-22T21:51:49.797Z,99369.70
2024-03-22T21:54:21.751Z,99367.66
2024-03-22T21:56:53.409Z,99367.48
2024-03-22T21:59:23.943Z,99368.61
2024-03-22T22:01:55.998Z,99363.05
2024-03-22T22:04:26.430Z,99358.69
2024-03-22T22:06:58.194Z,99355.69
2024-03-22T22:09:28.938Z,99358.44
2024-03-22T22:12:00.579Z,99357.05
2024-03-22T22:14:31.310Z,99355.69
2024-03-22T22:17:02.869Z,99355.84
2024-03-22T22:19:33.390Z,99352.89
2024-03-22T22:22:04.947Z,99347.67
2024-03-22T22:24:35.580Z,99345.06
2024-03-22T22:27:07.212Z,99340.20
2024-03-22T22:29:38.280Z,99341.09
2024-03-22T22:32:10.140Z,99342.66
2024-03-22T22:34:40.459Z,99338.95
2024-03-22T22:37:11.906Z,99338.20
2024-03-22T22:39:42.445Z,99338.70
2024-03-22T22:42:14.008Z,99334.89
2024-03-22T22:44:44.664Z,99337.50
2024-03-22T22:47:16.180Z,99335.43
2024-03-22T22:49:46.702Z,99335.23
2024-03-22T22:52:18.366Z,99334.46
2024-03-22T22:54:49.090Z,99330.41
2024-03-22T22:57:20.766Z,99328.97
2024-03-22T22:59:51.482Z,99326.89
2024-03-22T23:02:23.251Z,99323.92
2024-03-22T23:04:53.669Z,99325.14
2024-03-22T23:07:25.425Z,99320.92
2024-03-22T23:09:55.950Z,99319.09
2024-03-22T23:12:27.815Z,99314.54
2024-03-22T23:14:58.653Z,99313.42
2024-03-22T23:17:30.419Z,99308.34
2024-03-22T23:20:00.844Z,99303.77
2024-03-22T23:22:32.712Z,99299.35
2024-03-22T23:25:03.854Z,99296.02
2024-03-22T23:27:36.124Z,99289.19
2024-03-22T23:30:06.783Z,99283.73
2024-03-22T23:32:38.403Z,99276.51
2024-03-22T23:35:08.814Z,99277.20
2024-03-22T23:37:41.195Z,99272.73
2024-03-22T23:40:11.621Z,99270.50
2024-03-22T23:42:43.782Z,99266.52
2024-03-22T23:45:14.336Z,99264.96
2024-03-22T23:47:45.967Z,99262.33
2024-03-22T23:50:16.413Z,99257.38
2024-03-22T23:52:48.143Z,99252.64
2024-03-22T23:55:18.990Z,99255.69
2024-03-22T23:57:50.437Z,99254.41
